Time;durP1;ratioP1;P1;durP2;ratioP2;P2;SDS_P1;SDS_P2;PMS_P1;PMS_P2;Temp;Humidity;BMP_temperature;BMP_pressure;BME280_temperature;BME280_humidity;BME280_pressure;Samples;Min_cycle;Max_cycle;Signal;HPM_P1;HPM_P2
2021/05/30 00:02:11;;;;;;;15.80;9.23;;;11.80;99.90;;;;;;5054425;28;20424;-84
2021/05/30 00:04:37;;;;;;;11.80;10.03;;;11.80;99.90;;;;;;5054894;28;20427;-84
2021/05/30 00:07:07;;;;;;;9.87;8.83;;;11.80;99.90;;;;;;5054651;28;20430;-85
2021/05/30 00:09:38;;;;;;;13.13;8.93;;;11.70;99.90;;;;;;5037745;28;20530;-84
2021/05/30 00:12:08;;;;;;;9.97;8.40;;;11.70;99.90;;;;;;5037893;28;20415;-85
2021/05/30 00:14:34;;;;;;;13.10;8.87;;;11.70;99.90;;;;;;5004764;28;20476;-84
2021/05/30 00:17:05;;;;;;;10.97;8.63;;;11.60;99.90;;;;;;5054886;28;20923;-84
2021/05/30 00:19:34;;;;;;;10.60;9.10;;;11.60;99.90;;;;;;5046543;28;20444;-84
2021/05/30 00:22:01;;;;;;;10.00;8.23;;;11.60;99.90;;;;;;5037465;28;20470;-85
2021/05/30 00:24:27;;;;;;;9.67;8.67;;;11.50;99.90;;;;;;5054260;28;20483;-84
2021/05/30 00:26:58;;;;;;;9.43;8.43;;;11.50;99.90;;;;;;5037172;28;20948;-84
2021/05/30 00:29:24;;;;;;;12.40;8.77;;;11.40;99.90;;;;;;5053740;28;20499;-84
2021/05/30 00:31:52;;;;;;;10.07;9.00;;;11.40;99.90;;;;;;5051945;28;20450;-83
2021/05/30 00:34:18;;;;;;;9.67;8.57;;;11.30;99.90;;;;;;5017840;28;20816;-84
2021/05/30 00:36:47;;;;;;;10.07;8.57;;;11.30;99.90;;;;;;5034745;28;20515;-84
2021/05/30 00:39:13;;;;;;;11.00;9.50;;;11.20;99.90;;;;;;5042203;28;20916;-84
2021/05/30 00:41:39;;;;;;;10.83;9.07;;;11.10;99.90;;;;;;5036924;28;20485;-84
2021/05/30 00:44:24;;;;;;;11.33;9.20;;;11.00;99.90;;;;;;5053082;28;20431;-84
2021/05/30 00:46:52;;;;;;;11.80;8.07;;;11.00;99.90;;;;;;5070528;28;20424;-84
2021/05/30 00:49:18;;;;;;;10.70;9.50;;;11.00;99.90;;;;;;5048806;28;20416;-84
2021/05/30 00:51:44;;;;;;;9.40;8.50;;;10.90;99.90;;;;;;5053083;28;20430;-84
2021/05/30 00:54:13;;;;;;;11.10;9.80;;;11.00;99.90;;;;;;5053514;28;20431;-84
2021/05/30 00:56:41;;;;;;;10.03;8.30;;;10.90;99.90;;;;;;5033269;28;20475;-84
2021/05/30 00:59:14;;;;;;;11.43;8.73;;;10.90;99.90;;;;;;5034636;28;20754;-84
2021/05/30 01:01:46;;;;;;;9.13;7.70;;;10.90;99.90;;;;;;5069653;28;20926;-84
2021/05/30 01:04:12;;;;;;;9.30;8.23;;;10.90;99.90;;;;;;5038475;28;20432;-84
2021/05/30 01:06:40;;;;;;;9.80;8.07;;;10.90;99.90;;;;;;5068828;28;20511;-84
2021/05/30 01:09:11;;;;;;;13.70;11.40;;;10.90;99.90;;;;;;5037121;28;20423;-84
2021/05/30 01:11:37;;;;;;;9.20;8.30;;;10.90;99.90;;;;;;5034495;28;20443;-84
2021/05/30 01:14:05;;;;;;;9.20;8.20;;;10.90;99.90;;;;;;5050010;28;20439;-84
2021/05/30 01:16:33;;;;;;;10.73;8.60;;;10.80;99.90;;;;;;5052414;28;20930;-84
2021/05/30 01:19:00;;;;;;;9.67;8.57;;;10.70;99.90;;;;;;5049188;28;20489;-84
2021/05/30 01:21:30;;;;;;;13.00;8.93;;;10.70;99.90;;;;;;5034503;28;20455;-84
2021/05/30 01:23:57;;;;;;;11.80;8.50;;;10.70;99.90;;;;;;5034073;28;20872;-83
2021/05/30 01:26:26;;;;;;;9.43;8.43;;;10.60;99.90;;;;;;5033952;28;20530;-84
2021/05/30 01:28:54;;;;;;;12.17;8.97;;;10.60;99.90;;;;;;5048913;28;20887;-84
2021/05/30 01:31:23;;;;;;;10.00;8.87;;;10.50;99.90;;;;;;5021156;28;20516;-84
2021/05/30 01:33:49;;;;;;;10.73;8.80;;;10.60;99.90;;;;;;5046073;28;20442;-84
2021/05/30 01:36:18;;;;;;;10.23;8.40;;;10.50;99.90;;;;;;5033795;28;20780;-84
2021/05/30 01:38:46;;;;;;;11.80;8.50;;;10.40;99.90;;;;;;5034370;28;20446;-83
2021/05/30 01:41:14;;;;;;;9.47;8.50;;;10.30;99.90;;;;;;5017857;28;20430;-84
2021/05/30 01:43:43;;;;;;;12.23;8.70;;;10.30;99.90;;;;;;5052864;28;20392;-84
2021/05/30 01:46:11;;;;;;;10.57;8.50;;;10.20;99.90;;;;;;5036129;28;20760;-84
2021/05/30 01:48:37;;;;;;;9.87;8.30;;;10.30;99.90;;;;;;5035769;28;20545;-84
2021/05/30 01:51:04;;;;;;;11.53;9.27;;;10.30;99.90;;;;;;5051586;28;20430;-84
2021/05/30 01:53:35;;;;;;;10.27;9.23;;;10.20;99.90;;;;;;5032851;28;20542;-84
2021/05/30 01:58:29;;;;;;;10.47;9.10;;;10.10;99.90;;;;;;5053307;28;20441;-84
2021/05/30 02:00:59;;;;;;;9.03;7.73;;;10.10;99.90;;;;;;5053481;28;20520;-83
2021/05/30 02:03:27;;;;;;;12.37;9.77;;;10.10;99.90;;;;;;5034082;28;20457;-84
2021/05/30 02:05:56;;;;;;;10.13;8.73;;;10.10;99.90;;;;;;5039078;28;20482;-84
2021/05/30 02:08:25;;;;;;;12.50;9.70;;;10.00;99.90;;;;;;5033933;28;20416;-84
2021/05/30 02:10:51;;;;;;;10.40;8.77;;;10.00;99.90;;;;;;5016245;28;20768;-84
2021/05/30 02:13:18;;;;;;;13.80;9.07;;;10.00;99.90;;;;;;5032530;28;20449;-84
2021/05/30 02:15:45;;;;;;;11.03;9.30;;;10.00;99.90;;;;;;5032468;28;20467;-84
2021/05/30 02:18:11;;;;;;;9.07;7.80;;;10.00;99.90;;;;;;5016762;28;20424;-84
2021/05/30 02:20:40;;;;;;;11.93;8.90;;;9.90;99.90;;;;;;5019513;28;20879;-84
2021/05/30 02:23:11;;;;;;;11.30;8.17;;;10.00;99.90;;;;;;5044324;28;20454;-84
2021/05/30 02:25:37;;;;;;;12.37;9.83;;;9.90;99.90;;;;;;5033397;28;20469;-83
2021/05/30 02:28:04;;;;;;;12.00;9.10;;;9.90;99.90;;;;;;5042956;28;20505;-84
2021/05/30 02:30:34;;;;;;;11.60;8.47;;;9.80;99.90;;;;;;5056223;28;20531;-83
2021/05/30 02:33:03;;;;;;;10.50;9.40;;;9.80;99.90;;;;;;5039322;28;20435;-84
2021/05/30 02:35:30;;;;;;;12.00;9.27;;;9.80;99.90;;;;;;5036767;28;20459;-84
2021/05/30 02:37:56;;;;;;;9.70;8.70;;;9.80;99.90;;;;;;5051323;28;20899;-84
2021/05/30 02:40:23;;;;;;;13.40;9.00;;;9.80;99.90;;;;;;5056292;28;20452;-83
2021/05/30 02:42:49;;;;;;;12.27;7.57;;;9.80;99.90;;;;;;5055274;28;20434;-84
2021/05/30 02:45:17;;;;;;;10.03;7.43;;;9.80;99.90;;;;;;5039607;28;20445;-86
2021/05/30 02:47:47;;;;;;;9.30;7.77;;;9.80;99.90;;;;;;5049040;28;20514;-83
2021/05/30 02:50:15;;;;;;;7.93;7.13;;;9.80;99.90;;;;;;5036536;28;20545;-84
2021/05/30 02:52:41;;;;;;;7.50;6.73;;;9.80;99.90;;;;;;5019806;28;20775;-84
2021/05/30 02:55:08;;;;;;;8.87;7.20;;;9.80;99.90;;;;;;5036882;28;20431;-84
2021/05/30 02:57:36;;;;;;;7.57;6.47;;;9.70;99.90;;;;;;5049349;28;20437;-83
2021/05/30 03:00:05;;;;;;;9.13;7.90;;;9.70;99.90;;;;;;5038551;28;20442;-84
2021/05/30 03:02:31;;;;;;;8.40;7.60;;;9.70;99.90;;;;;;5056566;28;20446;-83
2021/05/30 03:04:57;;;;;;;8.90;7.07;;;9.70;99.90;;;;;;5055463;28;20534;-84
2021/05/30 03:07:28;;;;;;;8.20;7.40;;;9.70;99.90;;;;;;5038871;28;20484;-84
2021/05/30 03:09:56;;;;;;;9.07;7.17;;;9.70;99.90;;;;;;5032091;28;20443;-84
2021/05/30 03:12:25;;;;;;;8.40;7.10;;;9.70;99.90;;;;;;5035260;28;20427;-84
2021/05/30 03:14:51;;;;;;;7.77;6.90;;;9.70;99.90;;;;;;5042859;28;20437;-84
2021/05/30 03:17:17;;;;;;;9.90;8.10;;;9.70;99.90;;;;;;5055398;28;20470;-83
2021/05/30 03:19:43;;;;;;;9.40;7.80;;;9.70;99.90;;;;;;5029320;28;20530;-84
2021/05/30 03:22:12;;;;;;;11.23;8.23;;;9.60;99.90;;;;;;5015592;28;20454;-83
2021/05/30 03:24:38;;;;;;;9.83;8.83;;;9.60;99.90;;;;;;5038021;28;20449;-84
2021/05/30 03:27:04;;;;;;;10.10;8.50;;;9.60;99.90;;;;;;5054860;28;20514;-84
2021/05/30 03:29:30;;;;;;;10.13;9.03;;;9.60;99.90;;;;;;5058457;28;20500;-84
2021/05/30 03:31:56;;;;;;;10.07;9.07;;;9.50;99.90;;;;;;5062844;28;20938;-84
2021/05/30 03:34:22;;;;;;;10.90;8.93;;;9.50;99.90;;;;;;5055895;28;20460;-83
2021/05/30 03:36:54;;;;;;;11.57;9.93;;;9.40;99.90;;;;;;5062743;28;20479;-79
2021/05/30 03:39:26;;;;;;;12.77;9.27;;;9.40;99.90;;;;;;5068531;28;20452;-79
2021/05/30 03:41:55;;;;;;;11.50;9.30;;;9.40;99.90;;;;;;5074928;28;20440;-79
2021/05/30 03:44:26;;;;;;;13.90;10.43;;;9.30;99.90;;;;;;5058160;28;20950;-79
2021/05/30 03:46:51;;;;;;;14.33;10.30;;;9.30;99.90;;;;;;5044464;28;20491;-78
2021/05/30 03:49:22;;;;;;;12.97;10.23;;;9.30;99.90;;;;;;5071029;28;20432;-81
2021/05/30 03:51:52;;;;;;;12.40;10.67;;;9.30;99.90;;;;;;5048228;28;20426;-79
2021/05/30 03:54:21;;;;;;;11.27;10.00;;;9.30;99.90;;;;;;5055155;28;20974;-78
2021/05/30 03:56:47;;;;;;;14.87;10.07;;;9.30;99.90;;;;;;5037541;28;20492;-79
2021/05/30 03:59:13;;;;;;;14.90;11.13;;;9.30;99.90;;;;;;5063176;28;20603;-79
2021/05/30 04:01:39;;;;;;;10.37;9.10;;;9.30;99.90;;;;;;5055458;28;20467;-78
2021/05/30 04:04:12;;;;;;;16.60;11.23;;;9.40;99.90;;;;;;5054468;28;20446;-79
2021/05/30 04:06:41;;;;;;;13.10;10.70;;;9.40;99.90;;;;;;5070702;28;20460;-79
2021/05/30 04:09:14;;;;;;;13.47;10.33;;;9.40;99.90;;;;;;5057035;28;20495;-81
2021/05/30 04:11:43;;;;;;;12.30;9.93;;;9.40;99.90;;;;;;5056556;28;20491;-79
2021/05/30 04:14:11;;;;;;;12.70;10.83;;;9.40;99.90;;;;;;5037686;28;20436;-79
2021/05/30 04:16:39;;;;;;;13.47;10.53;;;9.50;99.90;;;;;;5054415;28;20458;-81
2021/05/30 04:19:07;;;;;;;13.37;11.20;;;9.50;99.90;;;;;;5064430;28;20434;-78
2021/05/30 04:21:38;;;;;;;12.60;10.80;;;9.60;99.90;;;;;;5028921;28;20423;-79
2021/05/30 04:24:04;;;;;;;13.43;10.97;;;9.60;99.90;;;;;;5055208;28;20484;-79
2021/05/30 04:26:34;;;;;;;13.17;11.00;;;9.70;99.90;;;;;;5052381;28;20450;-79
2021/05/30 04:29:06;;;;;;;12.70;11.40;;;9.80;99.90;;;;;;5070897;28;20787;-79
2021/05/30 04:31:36;;;;;;;15.27;11.73;;;9.90;99.90;;;;;;5036389;28;20938;-80
2021/05/30 04:34:02;;;;;;;13.97;11.63;;;9.90;99.90;;;;;;5065030;28;20433;-79
2021/05/30 04:36:28;;;;;;;13.23;11.40;;;10.00;99.90;;;;;;5041586;28;20477;-79
2021/05/30 04:38:59;;;;;;;14.40;11.93;;;10.00;99.90;;;;;;5037361;28;20540;-79
2021/05/30 04:41:27;;;;;;;17.60;12.63;;;10.10;99.90;;;;;;5034668;28;20438;-79
2021/05/30 04:43:56;;;;;;;18.47;12.83;;;10.20;99.90;;;;;;5058376;28;20517;-80
2021/05/30 04:46:29;;;;;;;16.10;13.27;;;10.30;99.90;;;;;;5054871;28;20422;-79
2021/05/30 04:48:59;;;;;;;15.87;11.40;;;10.30;99.90;;;;;;5058940;28;20764;-80
2021/05/30 04:51:25;;;;;;;16.67;13.50;;;10.40;99.90;;;;;;5057763;28;20524;-79
2021/05/30 04:53:55;;;;;;;15.17;12.33;;;10.50;99.90;;;;;;5055147;28;20812;-80
2021/05/30 04:56:24;;;;;;;16.33;13.77;;;10.60;99.90;;;;;;5065424;28;20465;-79
2021/05/30 04:58:50;;;;;;;16.60;13.87;;;10.60;99.90;;;;;;5074195;28;20477;-79
2021/05/30 05:01:21;;;;;;;17.90;14.53;;;10.70;99.90;;;;;;5053492;28;20446;-79
2021/05/30 05:03:48;;;;;;;20.80;14.73;;;10.80;99.90;;;;;;5019379;28;20416;-79
2021/05/30 05:06:19;;;;;;;19.80;14.93;;;10.90;99.90;;;;;;5053738;28;20802;-79
2021/05/30 05:08:46;;;;;;;18.20;15.70;;;11.00;99.90;;;;;;5053938;28;20466;-80
2021/05/30 05:11:14;;;;;;;20.20;16.00;;;11.10;99.90;;;;;;5053872;28;20435;-79
2021/05/30 05:13:43;;;;;;;20.03;15.10;;;11.20;99.90;;;;;;5050292;28;20496;-79
2021/05/30 05:16:11;;;;;;;19.73;16.00;;;11.30;99.90;;;;;;5048865;28;20473;-79
2021/05/30 05:18:42;;;;;;;18.17;15.83;;;11.40;99.90;;;;;;5058696;28;20973;-79
2021/05/30 05:21:08;;;;;;;15.90;14.00;;;11.50;99.90;;;;;;5052432;28;20891;-79
2021/05/30 05:23:34;;;;;;;23.77;17.37;;;11.50;99.90;;;;;;5064340;28;20488;-79
2021/05/30 05:26:05;;;;;;;22.07;17.30;;;11.60;99.90;;;;;;5041131;28;20436;-80
2021/05/30 05:28:34;;;;;;;23.70;18.97;;;11.80;99.90;;;;;;5052077;28;20435;-79
2021/05/30 05:31:04;;;;;;;21.77;16.80;;;11.80;99.90;;;;;;5035455;28;20504;-79
2021/05/30 05:33:33;;;;;;;22.23;16.47;;;11.90;99.90;;;;;;5052010;28;20551;-79
2021/05/30 05:36:01;;;;;;;21.27;16.87;;;11.90;99.90;;;;;;5051643;28;20544;-79
2021/05/30 05:38:27;;;;;;;20.10;16.67;;;12.10;99.90;;;;;;5051256;28;20439;-79
2021/05/30 05:40:53;;;;;;;20.50;17.37;;;12.10;99.90;;;;;;5044368;28;20447;-79
2021/05/30 05:43:21;;;;;;;24.13;18.37;;;12.20;99.90;;;;;;5058930;28;20506;-79
2021/05/30 05:45:50;;;;;;;21.37;17.80;;;12.30;99.90;;;;;;5051484;28;20770;-79
2021/05/30 05:48:18;;;;;;;21.10;15.60;;;12.50;99.90;;;;;;5052061;28;20910;-79
2021/05/30 05:50:51;;;;;;;21.63;16.30;;;12.60;99.90;;;;;;5038379;28;20435;-79
2021/05/30 05:53:17;;;;;;;20.90;17.00;;;12.70;99.90;;;;;;5051821;28;20486;-79
2021/05/30 05:55:43;;;;;;;21.63;16.73;;;12.80;99.90;;;;;;5051993;28;20947;-80
2021/05/30 05:58:14;;;;;;;20.17;15.83;;;12.90;99.90;;;;;;5059592;28;20457;-79
2021/05/30 06:00:42;;;;;;;21.17;16.20;;;13.00;99.90;;;;;;5059277;28;20438;-80
2021/05/30 06:03:13;;;;;;;19.80;16.50;;;13.10;99.90;;;;;;5046536;28;20551;-79
2021/05/30 06:05:42;;;;;;;20.50;16.10;;;13.20;99.90;;;;;;5064658;28;20437;-79
2021/05/30 06:08:10;;;;;;;19.90;15.70;;;13.20;99.90;;;;;;5049657;28;20443;-79
2021/05/30 06:10:41;;;;;;;19.20;15.80;;;13.40;99.90;;;;;;5055482;28;20444;-79
2021/05/30 06:13:10;;;;;;;17.20;15.00;;;13.50;99.90;;;;;;5056431;28;20435;-79
2021/05/30 06:15:45;;;;;;;19.63;15.67;;;13.60;99.90;;;;;;5055367;28;20475;-80
2021/05/30 06:18:15;;;;;;;18.03;15.60;;;13.70;99.90;;;;;;5055612;28;20440;-79
2021/05/30 06:20:46;;;;;;;20.93;16.30;;;13.90;99.90;;;;;;5060215;28;20466;-79
2021/05/30 06:23:13;;;;;;;18.10;14.20;;;13.80;99.90;;;;;;5054816;28;20420;-80
2021/05/30 06:25:41;;;;;;;17.47;15.27;;;13.90;99.90;;;;;;5063403;28;20534;-79
2021/05/30 06:28:07;;;;;;;18.60;14.60;;;14.00;99.90;;;;;;5037909;28;20427;-79
2021/05/30 06:30:39;;;;;;;18.23;15.07;;;14.10;99.90;;;;;;5055800;28;20555;-80
2021/05/30 06:33:07;;;;;;;16.93;14.60;;;14.20;99.90;;;;;;5073513;28;20434;-79
2021/05/30 06:35:35;;;;;;;16.37;13.93;;;14.20;99.90;;;;;;5049348;28;20472;-80
2021/05/30 06:38:09;;;;;;;16.97;14.20;;;14.30;99.90;;;;;;5056991;28;20489;-79
2021/05/30 06:40:38;;;;;;;15.67;13.27;;;14.30;99.90;;;;;;5056134;28;20461;-79
2021/05/30 06:43:05;;;;;;;15.37;13.50;;;14.50;99.90;;;;;;5058783;28;20935;-79
2021/05/30 06:45:33;;;;;;;18.40;13.40;;;14.60;99.90;;;;;;5069351;28;20458;-79
2021/05/30 06:48:00;;;;;;;15.60;13.97;;;14.60;99.90;;;;;;5048253;28;20434;-80
2021/05/30 06:50:30;;;;;;;17.37;13.50;;;14.70;99.90;;;;;;5056565;28;20438;-79
2021/05/30 06:52:59;;;;;;;15.27;13.67;;;14.70;99.90;;;;;;5056083;28;20443;-79
2021/05/30 06:55:27;;;;;;;15.30;13.13;;;14.80;99.90;;;;;;5057169;28;20415;-79
2021/05/30 06:57:57;;;;;;;14.53;12.80;;;14.60;99.90;;;;;;5039616;28;20739;-79
2021/05/30 07:00:23;;;;;;;13.30;11.90;;;14.70;99.90;;;;;;5036416;28;20426;-80
2021/05/30 07:02:52;;;;;;;11.93;10.70;;;14.90;99.90;;;;;;5060401;28;20433;-80
2021/05/30 07:05:21;;;;;;;13.20;11.67;;;15.00;99.90;;;;;;5055723;28;20510;-79
2021/05/30 07:07:49;;;;;;;13.30;12.00;;;15.20;99.90;;;;;;5055550;28;20439;-80
2021/05/30 07:10:16;;;;;;;13.80;12.37;;;15.40;99.90;;;;;;5056825;28;20457;-79
2021/05/30 07:12:41;;;;;;;12.90;11.60;;;15.40;99.90;;;;;;5055828;28;20430;-79
2021/05/30 07:15:08;;;;;;;13.10;10.90;;;15.50;99.90;;;;;;5048364;28;20483;-79
2021/05/30 07:17:38;;;;;;;13.90;11.70;;;15.60;99.90;;;;;;5044327;28;20457;-79
2021/05/30 07:20:05;;;;;;;13.57;11.83;;;15.70;99.90;;;;;;5072356;28;20461;-79
2021/05/30 07:22:33;;;;;;;12.30;11.00;;;15.90;99.90;;;;;;5043428;28;20426;-79
2021/05/30 07:24:59;;;;;;;13.60;12.20;;;15.90;99.90;;;;;;5056400;28;20423;-79
2021/05/30 07:27:25;;;;;;;11.77;10.67;;;15.90;99.90;;;;;;5059425;28;20982;-79
2021/05/30 07:29:51;;;;;;;11.50;10.40;;;16.00;99.90;;;;;;5069907;28;20214;-79
2021/05/30 07:32:19;;;;;;;12.03;10.90;;;16.20;99.90;;;;;;5055517;28;20434;-79
2021/05/30 07:34:45;;;;;;;12.00;10.80;;;16.20;99.90;;;;;;5056412;28;20440;-79
2021/05/30 07:37:11;;;;;;;12.17;10.93;;;16.40;99.90;;;;;;5038331;28;20469;-80
2021/05/30 07:39:37;;;;;;;14.50;11.50;;;16.50;99.90;;;;;;5073011;28;20498;-80
2021/05/30 07:42:03;;;;;;;11.40;10.20;;;16.50;99.90;;;;;;5038096;28;20459;-79
2021/05/30 07:44:32;;;;;;;11.97;10.77;;;16.60;99.90;;;;;;5060060;28;20948;-79
2021/05/30 07:47:00;;;;;;;11.27;9.70;;;16.70;99.90;;;;;;5035374;28;20472;-79
2021/05/30 07:49:28;;;;;;;11.50;10.50;;;16.80;99.90;;;;;;5060620;28;20430;-79
2021/05/30 07:51:59;;;;;;;10.93;9.93;;;16.80;99.90;;;;;;5055232;28;20850;-79
2021/05/30 07:54:27;;;;;;;10.90;9.93;;;16.90;99.90;;;;;;5057110;28;20453;-80
2021/05/30 07:56:55;;;;;;;12.73;10.23;;;17.00;99.90;;;;;;5071272;28;20472;-79
2021/05/30 07:59:22;;;;;;;9.67;8.83;;;17.10;99.90;;;;;;5055087;28;20541;-79
2021/05/30 08:01:51;;;;;;;11.30;10.20;;;17.20;99.90;;;;;;5037862;28;20435;-80
2021/05/30 08:04:22;;;;;;;10.80;8.50;;;17.20;99.90;;;;;;5038073;28;20764;-80
2021/05/30 08:06:48;;;;;;;10.20;8.70;;;17.30;99.90;;;;;;5060031;28;20427;-79
2021/05/30 08:09:17;;;;;;;9.87;9.07;;;17.40;99.90;;;;;;5055064;28;20509;-79
2021/05/30 08:11:43;;;;;;;9.90;8.90;;;17.40;97.80;;;;;;5059180;28;20464;-79
2021/05/30 08:14:09;;;;;;;9.37;8.47;;;17.40;96.80;;;;;;5065293;28;20511;-79
2021/05/30 08:16:39;;;;;;;8.17;7.50;;;17.50;97.40;;;;;;5054755;28;20499;-79
2021/05/30 08:19:06;;;;;;;8.63;7.93;;;17.60;97.80;;;;;;5036798;28;20424;-79
2021/05/30 08:21:34;;;;;;;9.00;8.27;;;17.60;97.60;;;;;;5054911;28;20441;-79
2021/05/30 08:24:00;;;;;;;11.30;8.20;;;17.60;98.10;;;;;;5054857;28;20433;-79
2021/05/30 08:26:31;;;;;;;9.67;8.87;;;17.60;98.30;;;;;;5066483;28;20418;-79
2021/05/30 08:28:57;;;;;;;8.80;8.10;;;17.80;96.70;;;;;;5054817;28;20441;-79
2021/05/30 08:31:25;;;;;;;9.33;8.53;;;17.80;97.10;;;;;;5051784;28;20881;-80
2021/05/30 08:33:53;;;;;;;9.23;8.20;;;17.90;96.80;;;;;;5058511;28;20477;-79
2021/05/30 08:36:22;;;;;;;8.27;7.47;;;18.00;97.60;;;;;;5072036;28;20854;-79
2021/05/30 08:38:48;;;;;;;8.70;7.80;;;18.10;96.70;;;;;;5037315;28;20513;-79
2021/05/30 08:41:16;;;;;;;7.80;7.20;;;18.20;96.30;;;;;;5053917;28;20918;-79
2021/05/30 08:43:44;;;;;;;8.10;7.40;;;18.30;94.60;;;;;;5053920;28;20456;-81
2021/05/30 08:46:10;;;;;;;8.73;8.00;;;18.40;95.70;;;;;;5065688;28;20445;-79
2021/05/30 08:48:36;;;;;;;8.27;7.60;;;18.50;94.30;;;;;;5036504;28;20432;-79
2021/05/30 08:51:05;;;;;;;8.10;7.50;;;18.60;94.40;;;;;;5019890;28;20522;-79
2021/05/30 08:53:37;;;;;;;8.97;8.17;;;18.70;93.60;;;;;;5054285;28;20786;-79
2021/05/30 08:56:05;;;;;;;7.70;7.03;;;18.80;93.10;;;;;;5054113;28;20527;-80
2021/05/30 08:58:42;;;;;;;9.63;7.37;;;18.90;91.30;;;;;;5054076;28;20432;-80
2021/05/30 09:01:14;;;;;;;7.33;6.83;;;18.80;91.10;;;;;;5054368;28;20439;-80
2021/05/30 09:04:07;;;;;;;7.90;7.30;;;18.70;91.60;;;;;;5050639;28;20437;-81
2021/05/30 09:06:34;;;;;;;8.40;7.70;;;18.80;91.60;;;;;;5057745;28;20433;-80
2021/05/30 09:09:06;;;;;;;7.97;7.37;;;18.80;90.80;;;;;;5036569;28;20442;-80
2021/05/30 09:11:54;;;;;;;8.00;7.50;;;19.00;90.00;;;;;;5054431;28;20441;-80
2021/05/30 09:14:25;;;;;;;7.30;6.80;;;19.10;87.70;;;;;;5067964;28;20428;-80
2021/05/30 09:16:59;;;;;;;7.87;7.17;;;19.20;83.40;;;;;;5053420;28;20451;-80
2021/05/30 09:19:32;;;;;;;7.57;7.10;;;19.30;85.50;;;;;;5059353;28;21047;-81
2021/05/30 09:22:28;;;;;;;7.77;7.20;;;19.40;86.00;;;;;;5045023;28;20424;-80
2021/05/30 09:25:16;;;;;;;7.00;6.50;;;19.60;87.40;;;;;;5061284;28;20483;-80
2021/05/30 09:27:46;;;;;;;7.70;7.17;;;19.90;87.80;;;;;;5061877;28;20423;-79
2021/05/30 09:30:21;;;;;;;7.23;6.70;;;20.10;84.30;;;;;;5018755;28;20962;-79
2021/05/30 09:33:03;;;;;;;6.97;6.37;;;20.40;84.60;;;;;;5036290;28;20413;-80
2021/05/30 09:35:45;;;;;;;7.60;7.00;;;20.50;79.70;;;;;;5027950;28;20438;-80
2021/05/30 09:38:15;;;;;;;7.33;6.77;;;20.60;78.50;;;;;;5054524;28;20838;-79
2021/05/30 09:40:53;;;;;;;7.10;6.70;;;20.70;77.40;;;;;;5061092;28;20434;-80
2021/05/30 09:43:27;;;;;;;7.60;7.10;;;21.00;81.20;;;;;;5053272;28;20507;-79
2021/05/30 09:46:05;;;;;;;7.63;7.10;;;21.00;78.40;;;;;;5035953;28;20933;-79
2021/05/30 09:48:34;;;;;;;6.60;6.20;;;21.20;78.50;;;;;;5053509;28;20421;-79
2021/05/30 09:51:22;;;;;;;7.17;6.67;;;21.40;78.50;;;;;;5051005;28;20514;-79
2021/05/30 09:53:48;;;;;;;7.27;6.77;;;21.50;76.90;;;;;;5058037;28;20445;-79
2021/05/30 09:56:34;;;;;;;7.47;6.87;;;21.80;79.80;;;;;;5037845;28;20462;-80
2021/05/30 09:59:04;;;;;;;7.07;6.67;;;22.10;72.80;;;;;;5053441;28;20190;-79
2021/05/30 10:01:58;;;;;;;7.40;6.90;;;22.20;70.30;;;;;;5053237;28;20442;-80
2021/05/30 10:04:31;;;;;;;6.73;6.23;;;22.40;68.90;;;;;;5063653;28;20741;-79
2021/05/30 10:07:04;;;;;;;7.30;6.70;;;22.50;72.50;;;;;;5073006;28;20446;-80
2021/05/30 10:09:34;;;;;;;6.67;6.17;;;22.70;68.10;;;;;;5059012;28;20501;-81
2021/05/30 10:12:07;;;;;;;7.40;6.90;;;22.90;68.30;;;;;;5062596;28;20458;-80
2021/05/30 10:14:35;;;;;;;8.43;7.60;;;23.00;66.40;;;;;;5053167;28;20749;-80
2021/05/30 10:17:02;;;;;;;7.07;6.67;;;23.20;65.30;;;;;;5053109;28;20554;-80
2021/05/30 10:19:42;;;;;;;7.30;6.90;;;23.50;67.20;;;;;;5038680;28;20486;-80
2021/05/30 10:22:14;;;;;;;8.47;7.90;;;23.70;62.60;;;;;;5053259;28;20498;-80
2021/05/30 10:24:41;;;;;;;7.50;7.00;;;23.80;64.20;;;;;;5038809;28;20507;-79
2021/05/30 10:27:15;;;;;;;7.83;7.30;;;24.20;64.00;;;;;;5053027;28;20886;-79
2021/05/30 10:30:01;;;;;;;8.13;7.53;;;24.30;63.70;;;;;;5053955;28;20453;-79
2021/05/30 10:32:27;;;;;;;7.67;7.17;;;24.40;61.90;;;;;;5035907;28;20445;-79
2021/05/30 10:35:23;;;;;;;8.10;7.50;;;24.50;59.60;;;;;;5060113;28;20457;-79
2021/05/30 10:37:51;;;;;;;7.50;7.10;;;24.50;59.70;;;;;;5053545;28;20434;-79
2021/05/30 10:40:20;;;;;;;8.30;7.70;;;24.40;61.10;;;;;;5054112;28;20449;-80
2021/05/30 10:43:08;;;;;;;8.17;7.47;;;24.50;59.70;;;;;;5073005;28;20489;-80
2021/05/30 10:45:56;;;;;;;7.87;7.37;;;24.50;57.30;;;;;;5052897;28;20505;-79
2021/05/30 10:48:25;;;;;;;7.60;7.10;;;24.40;57.10;;;;;;5072435;28;20431;-80
2021/05/30 10:53:40;;;;;;;7.00;6.60;;;24.50;56.30;;;;;;5057125;28;20414;-81
2021/05/30 10:56:31;;;;;;;7.33;6.80;;;24.50;56.60;;;;;;5039195;28;20465;-79
2021/05/30 10:59:15;;;;;;;7.47;7.07;;;24.80;57.00;;;;;;5063191;28;20524;-79
2021/05/30 11:01:44;;;;;;;7.43;6.97;;;24.90;53.90;;;;;;5055470;28;20424;-79
2021/05/30 11:04:29;;;;;;;8.00;7.50;;;24.90;54.00;;;;;;5056296;28;20513;-79
2021/05/30 11:06:57;;;;;;;8.10;7.60;;;25.00;56.20;;;;;;5056287;28;20429;-79
2021/05/30 11:09:47;;;;;;;8.90;8.30;;;24.80;53.20;;;;;;5038724;28;20517;-78
2021/05/30 11:12:21;;;;;;;7.97;7.53;;;25.10;53.60;;;;;;5039380;28;20438;-78
2021/05/30 11:15:06;;;;;;;7.33;6.93;;;25.40;49.70;;;;;;5033699;28;20430;-77
2021/05/30 11:17:54;;;;;;;7.70;7.30;;;25.20;49.60;;;;;;5055301;28;20474;-78
2021/05/30 11:20:43;;;;;;;7.60;7.10;;;25.40;50.40;;;;;;5055878;28;20528;-79
2021/05/30 11:23:14;;;;;;;7.60;7.20;;;25.80;51.50;;;;;;5045661;28;20453;-79
2021/05/30 11:25:56;;;;;;;7.77;7.27;;;26.00;50.90;;;;;;5054721;28;20422;-79
2021/05/30 11:28:26;;;;;;;7.60;7.20;;;26.10;51.30;;;;;;5056062;28;20430;-80
2021/05/30 11:30:56;;;;;;;9.07;8.47;;;26.20;49.80;;;;;;5043818;28;20491;-79
2021/05/30 11:33:22;;;;;;;8.37;7.87;;;26.30;49.10;;;;;;5035930;28;20493;-79
2021/05/30 11:36:10;;;;;;;8.93;8.47;;;26.60;47.80;;;;;;5036348;28;20472;-79
2021/05/30 11:38:41;;;;;;;9.03;8.53;;;26.70;46.50;;;;;;5035729;28;20605;-85
2021/05/30 11:41:17;;;;;;;8.87;8.37;;;27.10;47.40;;;;;;5029456;28;20954;-86
2021/05/30 11:44:20;;;;;;;8.63;8.13;;;27.20;45.80;;;;;;5038794;28;20418;-82
2021/05/30 11:46:46;;;;;;;7.63;7.13;;;27.10;45.60;;;;;;4997669;28;20447;-83
2021/05/30 11:49:21;;;;;;;7.03;6.63;;;27.10;45.90;;;;;;5042250;28;20437;-84
2021/05/30 11:52:03;;;;;;;7.30;6.90;;;26.80;45.60;;;;;;5015937;28;20860;-84
2021/05/30 11:54:41;;;;;;;6.80;6.40;;;26.60;45.90;;;;;;5042949;28;20423;-84
2021/05/30 11:57:09;;;;;;;8.03;7.53;;;26.70;46.00;;;;;;5034926;28;20547;-85
2021/05/30 11:59:40;;;;;;;7.30;6.80;;;26.80;44.50;;;;;;5035061;28;20442;-85
2021/05/30 12:02:08;;;;;;;7.80;7.30;;;27.10;44.00;;;;;;5054398;28;20434;-86
2021/05/30 12:04:36;;;;;;;8.43;7.73;;;27.40;45.20;;;;;;5023033;28;20431;-85
2021/05/30 12:07:09;;;;;;;7.87;7.37;;;27.60;46.00;;;;;;5034436;28;20433;-85
2021/05/30 12:09:52;;;;;;;8.13;7.73;;;27.70;44.40;;;;;;5035206;28;20452;-83
2021/05/30 12:12:24;;;;;;;8.07;7.47;;;27.50;43.30;;;;;;5001379;28;20425;-85
2021/05/30 12:14:50;;;;;;;7.80;7.30;;;27.60;43.40;;;;;;5034726;28;20469;-85
2021/05/30 12:17:16;;;;;;;7.77;7.27;;;27.70;43.10;;;;;;5035953;28;20552;-84
2021/05/30 12:19:45;;;;;;;7.80;7.40;;;27.60;43.40;;;;;;5033369;28;20640;-85
2021/05/30 12:22:41;;;;;;;7.17;6.77;;;27.40;42.70;;;;;;5017864;28;20589;-84
2021/05/30 12:25:10;;;;;;;7.70;7.30;;;27.70;41.90;;;;;;5022147;28;20581;-82
2021/05/30 12:27:36;;;;;;;7.70;7.30;;;27.40;41.70;;;;;;5026273;28;20974;-82
2021/05/30 12:30:04;;;;;;;7.57;7.07;;;27.30;42.10;;;;;;5054154;28;20467;-83
2021/05/30 12:32:30;;;;;;;7.23;6.87;;;27.50;41.80;;;;;;5017268;28;20450;-84
2021/05/30 12:34:59;;;;;;;8.10;7.63;;;27.40;42.20;;;;;;5033760;28;20430;-84
2021/05/30 12:37:42;;;;;;;7.40;7.00;;;27.50;41.50;;;;;;5031226;28;20465;-83
2021/05/30 12:40:10;;;;;;;9.30;8.80;;;27.70;41.80;;;;;;5044087;28;20774;-83
2021/05/30 12:42:38;;;;;;;7.60;7.20;;;28.00;42.30;;;;;;5046219;28;20414;-84
2021/05/30 12:45:10;;;;;;;7.90;7.30;;;28.00;40.60;;;;;;5038150;28;20915;-83
2021/05/30 12:47:43;;;;;;;7.33;6.93;;;27.90;40.20;;;;;;5034395;28;20949;-83
2021/05/30 12:50:15;;;;;;;6.70;6.40;;;27.70;40.80;;;;;;5029679;28;20905;-84
2021/05/30 12:52:48;;;;;;;7.50;7.10;;;27.60;41.30;;;;;;5034437;28;20480;-84
2021/05/30 12:55:19;;;;;;;7.77;7.17;;;27.80;41.30;;;;;;5034123;28;20530;-84
2021/05/30 12:57:48;;;;;;;7.40;6.90;;;28.10;41.00;;;;;;5034608;28;20456;-84
2021/05/30 13:00:28;;;;;;;7.43;7.03;;;28.30;39.40;;;;;;5032972;28;20430;-83
2021/05/30 13:03:00;;;;;;;7.67;7.27;;;28.50;38.70;;;;;;5051381;28;20525;-84